createdAt,value
2019-05-09T00:00:44.836Z,99388.72
2019-05-09T00:03:13.943Z,99385.84
2019-05-09T00:05:44.124Z,99388.60
2019-05-09T00:08:13.946Z,99378.84
2019-05-09T00:10:44.856Z,99383.55
2019-05-09T00:13:13.838Z,99384.84
2019-05-09T00:15:43.644Z,99380.22
2019-05-09T00:18:14.192Z,99372.45
2019-05-09T00:20:44.783Z,99370.90
2019-05-09T00:23:13.675Z,99374.89
2019-05-09T00:25:43.326Z,99374.54
2019-05-09T00:28:13.511Z,99371.38
2019-05-09T00:30:59.487Z,99370.66
2019-05-09T00:33:29.859Z,99368.33
2019-05-09T00:35:58.384Z,99365.61
2019-05-09T00:38:37.135Z,99370.94
2019-05-09T00:41:05.666Z,99364.78
2019-05-09T00:43:34.345Z,99362.77
2019-05-09T00:46:06.016Z,99354.11
2019-05-09T00:48:36.252Z,99356.44
2019-05-09T00:51:05.394Z,99359.05
2019-05-09T00:53:34.094Z,99359.17
2019-05-09T00:56:04.156Z,99353.48
2019-05-09T00:58:34.649Z,99347.80
2019-05-09T01:01:06.544Z,99348.89
2019-05-09T01:03:35.161Z,99346.96
2019-05-09T01:06:04.490Z,99349.17
2019-05-09T01:08:36.153Z,99342.18
2019-05-09T01:11:12.029Z,99348.31
2019-05-09T01:13:35.556Z,99344.94
2019-05-09T01:16:04.774Z,99346.48
2019-05-09T01:18:34.070Z,99348.06
2019-05-09T01:21:03.962Z,99339.41
2019-05-09T01:23:34.316Z,99331.32
2019-05-09T01:26:06.031Z,99337.95
2019-05-09T01:28:34.575Z,99334.20
2019-05-09T01:31:06.464Z,99330.41
2019-05-09T01:33:39.853Z,99322.73
2019-05-09T01:36:08.463Z,99331.39
2019-05-09T01:38:37.494Z,99334.39
2019-05-09T01:41:06.020Z,99339.22
2019-05-09T01:43:34.569Z,99321.08
2019-05-09T01:46:06.223Z,99344.08
2019-05-09T01:48:34.849Z,99343.99
2019-05-09T01:51:03.555Z,99341.43
2019-05-09T01:53:35.376Z,99338.94
2019-05-09T01:56:04.278Z,99333.53
2019-05-09T01:58:34.504Z,99317.81
2019-05-09T02:01:07.977Z,99337.84
2019-05-09T02:03:36.891Z,99340.80
2019-05-09T02:06:06.115Z,99333.69
2019-05-09T02:08:34.798Z,99339.25
2019-05-09T02:11:03.974Z,99341.70
2019-05-09T02:13:33.821Z,99340.95
2019-05-09T02:16:04.342Z,99338.90
2019-05-09T02:18:36.137Z,99342.21
2019-05-09T02:21:04.774Z,99341.76
2019-05-09T02:23:36.040Z,99335.80
2019-05-09T02:26:04.609Z,99341.84
2019-05-09T02:28:36.350Z,99346.11
2019-05-09T02:31:05.536Z,99339.16
2019-05-09T02:33:34.894Z,99340.14
2019-05-09T02:36:03.631Z,99336.43
2019-05-09T02:38:34.112Z,99341.45
2019-05-09T02:41:03.004Z,99332.84
2019-05-09T02:43:31.851Z,99336.01
2019-05-09T02:46:04.937Z,99333.56
2019-05-09T02:48:33.574Z,99327.05
2019-05-09T02:51:02.454Z,99336.37
2019-05-09T02:53:33.984Z,99334.00
2019-05-09T02:56:08.935Z,99341.55
2019-05-09T02:58:38.806Z,99339.52
2019-05-09T03:01:15.041Z,99340.35
2019-05-09T03:03:43.691Z,99340.91
2019-05-09T03:06:12.405Z,99350.86
2019-05-09T03:08:41.003Z,99349.36
2019-05-09T03:11:10.087Z,99341.49
2019-05-09T03:13:39.610Z,99338.42
2019-05-09T03:16:10.060Z,99327.63
2019-05-09T03:18:39.024Z,99337.16
2019-05-09T03:21:21.371Z,99345.05
2019-05-09T03:23:49.969Z,99346.13
2019-05-09T03:26:20.260Z,99337.59
2019-05-09T03:29:08.764Z,99345.05
2019-05-09T03:31:39.554Z,99342.21
2019-05-09T03:34:09.603Z,99338.77
2019-05-09T03:36:38.597Z,99345.48
2019-05-09T03:39:08.392Z,99352.33
2019-05-09T03:41:39.550Z,99363.22
2019-05-09T03:44:07.702Z,99360.45
2019-05-09T03:46:40.887Z,99356.82
2019-05-09T03:49:11.047Z,99364.72
2019-05-09T03:51:39.590Z,99363.86
2019-05-09T03:54:10.151Z,99373.41
2019-05-09T03:56:47.820Z,99369.78
2019-05-09T03:59:17.578Z,99372.36
2019-05-09T04:01:47.821Z,99359.00
2019-05-09T04:04:17.338Z,99368.13
2019-05-09T04:06:47.989Z,99363.43
2019-05-09T04:09:17.959Z,99365.52
2019-05-09T04:11:48.494Z,99377.61
2019-05-09T04:14:21.691Z,99375.39
2019-05-09T04:16:50.258Z,99372.00
2019-05-09T04:19:18.896Z,99365.32
2019-05-09T04:21:48.421Z,99370.11
2019-05-09T04:24:17.787Z,99368.72
2019-05-09T04:26:48.449Z,99374.22
2019-05-09T04:29:18.364Z,99372.00
2019-05-09T04:31:48.326Z,99362.29
2019-05-09T04:34:18.250Z,99364.38
2019-05-09T04:36:48.375Z,99356.88
2019-05-09T04:39:23.411Z,99350.63
2019-05-09T04:41:48.660Z,99369.16
2019-05-09T04:44:21.608Z,99377.77
2019-05-09T04:46:53.988Z,99377.41
2019-05-09T04:49:19.823Z,99375.05
2019-05-09T04:51:48.753Z,99372.44
2019-05-09T04:54:17.851Z,99374.57
2019-05-09T04:56:47.459Z,99381.89
2019-05-09T04:59:17.968Z,99383.52
2019-05-09T05:01:47.976Z,99378.69
2019-05-09T05:04:18.075Z,99378.45
2019-05-09T05:06:47.807Z,99377.70
2019-05-09T05:09:20.570Z,99369.91
2019-05-09T05:11:49.041Z,99367.94
2019-05-09T05:14:22.988Z,99377.23
2019-05-09T05:16:54.839Z,99392.19
2019-05-09T05:19:23.412Z,99391.75
2019-05-09T05:21:51.982Z,99387.97
2019-05-09T05:24:22.231Z,99386.94
2019-05-09T05:26:50.757Z,99387.92
2019-05-09T05:29:19.648Z,99389.49
2019-05-09T05:31:48.614Z,99389.34
2019-05-09T05:34:27.463Z,99398.27
2019-05-09T05:36:58.201Z,99396.61
2019-05-09T05:39:28.365Z,99399.48
2019-05-09T05:41:57.786Z,99395.23
2019-05-09T05:44:28.296Z,99398.52
2019-05-09T05:47:04.508Z,99397.25
2019-05-09T05:49:34.694Z,99400.97
2019-05-09T05:52:08.051Z,99404.95
2019-05-09T05:54:37.886Z,99406.28
2019-05-09T05:57:08.402Z,99406.36
2019-05-09T05:59:40.626Z,99411.46
2019-05-09T06:02:08.663Z,99410.97
2019-05-09T06:04:38.320Z,99408.09
2019-05-09T06:07:08.042Z,99413.38
2019-05-09T06:09:37.949Z,99416.21
2019-05-09T06:12:08.336Z,99414.67
2019-05-09T06:14:37.950Z,99413.44
2019-05-09T06:17:07.986Z,99417.84
2019-05-09T06:19:37.887Z,99420.99
2019-05-09T06:22:08.320Z,99423.05
2019-05-09T06:24:38.655Z,99422.53
2019-05-09T06:27:10.133Z,99419.36
2019-05-09T06:29:38.561Z,99427.46
2019-05-09T06:32:07.974Z,99422.23
2019-05-09T06:34:41.313Z,99421.41
2019-05-09T06:37:08.865Z,99424.72
2019-05-09T06:39:37.926Z,99422.61
2019-05-09T06:42:08.961Z,99426.62
2019-05-09T06:44:38.608Z,99426.80
2019-05-09T06:47:20.460Z,99431.36
2019-05-09T06:49:50.622Z,99424.81
2019-05-09T06:52:19.295Z,99429.31
2019-05-09T06:54:48.621Z,99432.00
2019-05-09T06:57:18.681Z,99436.40
2019-05-09T06:59:48.767Z,99434.55
2019-05-09T07:02:22.069Z,99434.17
2019-05-09T07:04:52.529Z,99441.67
2019-05-09T07:07:29.241Z,99449.94
2019-05-09T07:09:59.415Z,99436.16
2019-05-09T07:12:28.023Z,99440.12
2019-05-09T07:14:58.147Z,99440.98
2019-05-09T07:17:31.674Z,99437.87
2019-05-09T07:19:58.928Z,99440.16
2019-05-09T07:22:29.541Z,99439.08
2019-05-09T07:25:07.653Z,99442.53
2019-05-09T07:27:39.798Z,99438.19
2019-05-09T07:30:14.386Z,99438.39
2019-05-09T07:32:44.601Z,99436.50
2019-05-09T07:35:18.513Z,99432.41
2019-05-09T07:37:48.716Z,99431.31
2019-05-09T07:40:18.095Z,99429.80
2019-05-09T07:42:47.920Z,99432.17
2019-05-09T07:45:17.923Z,99424.48
2019-05-09T07:47:47.885Z,99423.11
2019-05-09T07:50:19.024Z,99424.59
2019-05-09T07:52:47.840Z,99423.39
2019-05-09T07:55:18.044Z,99428.25
2019-05-09T07:57:54.711Z,99438.83
2019-05-09T08:00:20.421Z,99431.80
2019-05-09T08:02:48.960Z,99438.65
2019-05-09T08:05:20.966Z,99430.56
2019-05-09T08:07:49.501Z,99426.69
2019-05-09T08:10:18.037Z,99427.19
2019-05-09T08:12:48.056Z,99427.33
2019-05-09T08:15:19.832Z,99429.25
2019-05-09T08:17:48.836Z,99431.53
2019-05-09T08:20:17.619Z,99431.73
2019-05-09T08:22:57.294Z,99428.34
2019-05-09T08:25:18.353Z,99434.73
2019-05-09T08:27:48.301Z,99445.29
2019-05-09T08:30:18.013Z,99438.75
2019-05-09T08:32:48.241Z,99442.63
2019-05-09T08:35:18.295Z,99448.55
2019-05-09T08:37:47.724Z,99449.42
2019-05-09T08:40:18.363Z,99457.73
2019-05-09T08:42:48.173Z,99447.41
2019-05-09T08:45:25.271Z,99451.97
2019-05-09T08:47:48.484Z,99455.11
2019-05-09T08:50:28.128Z,99458.84
2019-05-09T08:52:57.628Z,99459.67
2019-05-09T08:55:27.859Z,99456.41
2019-05-09T08:57:58.611Z,99471.45
2019-05-09T09:00:28.099Z,99466.77
2019-05-09T09:02:57.537Z,99473.05
2019-05-09T09:05:28.782Z,99473.84
2019-05-09T09:07:57.799Z,99473.91
2019-05-09T09:10:29.131Z,99471.48
2019-05-09T09:12:57.985Z,99471.33
2019-05-09T09:15:54.626Z,99469.78
2019-05-09T09:17:57.901Z,99469.84
2019-05-09T09:20:28.797Z,99466.27
2019-05-09T09:22:58.215Z,99471.53
2019-05-09T09:25:28.688Z,99470.61
2019-05-09T09:27:58.156Z,99467.87
2019-05-09T09:30:29.208Z,99473.52
2019-05-09T09:32:58.760Z,99470.27
2019-05-09T09:35:28.071Z,99474.60
2019-05-09T09:37:58.064Z,99469.80
2019-05-09T09:40:27.908Z,99473.36
2019-05-09T09:42:58.133Z,99473.63
2019-05-09T09:45:27.987Z,99473.81
2019-05-09T09:47:59.237Z,99478.47
2019-05-09T09:50:27.688Z,99479.58
2019-05-09T09:52:58.968Z,99473.53
2019-05-09T09:55:27.817Z,99485.72
2019-05-09T09:57:57.773Z,99482.81
2019-05-09T10:00:58.221Z,99487.77
2019-05-09T10:03:25.874Z,99491.77
2019-05-09T10:05:54.414Z,99493.01
2019-05-09T10:08:22.935Z,99492.47
2019-05-09T10:10:51.466Z,99491.62
2019-05-09T10:13:20.004Z,99494.48
2019-05-09T10:15:58.611Z,99497.21
2019-05-09T10:18:46.216Z,99490.92
2019-05-09T10:21:27.533Z,99488.93
2019-05-09T10:23:57.561Z,99485.77
2019-05-09T10:26:28.198Z,99490.06
2019-05-09T10:28:56.310Z,99493.23
2019-05-09T10:31:24.845Z,99498.06
2019-05-09T10:33:53.359Z,99495.12
2019-05-09T10:36:21.955Z,99495.47
2019-05-09T10:38:50.770Z,99494.99
2019-05-09T10:41:19.585Z,99490.98
2019-05-09T10:43:49.756Z,99499.36
2019-05-09T10:46:33.539Z,99498.28
2019-05-09T10:49:03.594Z,99506.00
2019-05-09T10:51:32.688Z,99500.02
2019-05-09T10:54:03.027Z,99499.27
2019-05-09T10:56:31.610Z,99494.20
2019-05-09T10:59:01.405Z,99500.05
2019-05-09T11:01:31.610Z,99494.25
2019-05-09T11:04:01.356Z,99493.19
2019-05-09T11:06:29.843Z,99493.92
2019-05-09T11:08:58.745Z,99487.50
2019-05-09T11:11:28.406Z,99477.59
2019-05-09T11:13:58.662Z,99488.92
2019-05-09T11:16:41.896Z,99490.95
2019-05-09T11:18:58.659Z,99491.33
2019-05-09T11:21:28.552Z,99487.25
2019-05-09T11:23:58.333Z,99491.98
2019-05-09T11:26:28.586Z,99488.18
2019-05-09T11:28:58.753Z,99481.20
2019-05-09T11:31:29.572Z,99482.20
2019-05-09T11:33:58.213Z,99477.06
2019-05-09T11:36:26.780Z,99479.05
2019-05-09T11:38:55.312Z,99478.90
2019-05-09T11:41:24.226Z,99476.41
2019-05-09T11:43:52.837Z,99473.41
2019-05-09T11:46:21.657Z,99475.42
2019-05-09T11:48:50.270Z,99476.47
2019-05-09T11:51:22.634Z,99479.95
2019-05-09T11:53:49.115Z,99471.59
2019-05-09T11:56:18.114Z,99471.87
2019-05-09T11:58:48.116Z,99473.83
2019-05-09T12:01:19.023Z,99473.00
2019-05-09T12:03:51.550Z,99471.88
2019-05-09T12:06:20.192Z,99470.86
2019-05-09T12:08:48.425Z,99469.51
2019-05-09T12:11:18.238Z,99465.28
2019-05-09T12:13:48.606Z,99458.38
2019-05-09T12:16:18.437Z,99456.38
2019-05-09T12:18:48.793Z,99452.27
2019-05-09T12:21:19.146Z,99460.02
2019-05-09T12:23:49.087Z,99449.39
2019-05-09T12:26:18.369Z,99455.59
2019-05-09T12:28:48.348Z,99455.66
2019-05-09T12:31:18.235Z,99454.91
2019-05-09T12:33:48.263Z,99451.53
2019-05-09T12:36:19.043Z,99459.66
2019-05-09T12:38:49.860Z,99453.44
2019-05-09T12:41:19.158Z,99451.52
2019-05-09T12:43:47.863Z,99452.86
2019-05-09T12:46:16.399Z,99449.23
2019-05-09T12:48:44.903Z,99455.41
2019-05-09T12:51:13.523Z,99457.09
2019-05-09T12:53:42.051Z,99465.44
2019-05-09T12:56:10.744Z,99447.59
2019-05-09T12:58:39.287Z,99445.92
2019-05-09T13:01:07.798Z,99454.92
2019-05-09T13:03:38.235Z,99452.13
2019-05-09T13:06:08.157Z,99453.52
2019-05-09T13:08:38.499Z,99459.45
2019-05-09T13:11:08.007Z,99459.41
2019-05-09T13:13:41.027Z,99448.70
2019-05-09T13:16:17.769Z,99449.11
2019-05-09T13:18:50.777Z,99441.91
2019-05-09T13:21:19.311Z,99447.13
2019-05-09T13:23:52.350Z,99443.08
2019-05-09T13:26:18.712Z,99444.34
2019-05-09T13:28:48.901Z,99442.30
2019-05-09T13:31:18.323Z,99447.52
2019-05-09T13:33:48.689Z,99441.87
2019-05-09T13:36:18.932Z,99447.17
2019-05-09T13:38:57.834Z,99448.47
2019-05-09T13:41:17.911Z,99445.92
2019-05-09T13:43:57.520Z,99440.78
2019-05-09T13:46:17.887Z,99450.23
2019-05-09T13:49:06.001Z,99442.38
2019-05-09T13:51:18.417Z,99438.81
2019-05-09T13:53:48.371Z,99434.39
2019-05-09T13:56:17.799Z,99431.23
2019-05-09T13:58:48.651Z,99438.80
2019-05-09T14:01:17.598Z,99440.38
2019-05-09T14:03:48.851Z,99436.13
2019-05-09T14:06:16.618Z,99437.21
2019-05-09T14:08:45.167Z,99435.20
2019-05-09T14:11:13.790Z,99435.69
2019-05-09T14:13:42.516Z,99440.30
2019-05-09T14:16:19.258Z,99433.69
2019-05-09T14:18:41.358Z,99439.34
2019-05-09T14:21:10.205Z,99442.41
2019-05-09T14:23:48.215Z,99437.03
2019-05-09T14:26:09.554Z,99441.63
2019-05-09T14:28:38.162Z,99444.69
2019-05-09T14:31:07.624Z,99438.63
2019-05-09T14:33:38.780Z,99448.81
2019-05-09T14:36:08.198Z,99444.89
2019-05-09T14:38:39.203Z,99442.89
2019-05-09T14:41:07.867Z,99448.18
2019-05-09T14:43:39.347Z,99446.34
2019-05-09T14:46:08.160Z,99448.38
2019-05-09T14:48:36.889Z,99447.73
2019-05-09T14:51:07.676Z,99450.16
2019-05-09T14:53:35.848Z,99438.33
2019-05-09T14:56:04.671Z,99437.23
2019-05-09T14:58:38.768Z,99445.80
2019-05-09T15:01:08.692Z,99447.99
2019-05-09T15:03:38.853Z,99440.75
2019-05-09T15:08:38.258Z,99443.30
2019-05-09T15:11:09.757Z,99446.28
2019-05-09T15:13:36.857Z,99454.68
2019-05-09T15:16:05.355Z,99456.97
2019-05-09T15:18:33.940Z,99452.02
2019-05-09T15:21:07.863Z,99449.43
2019-05-09T15:23:35.718Z,99454.55
2019-05-09T15:26:04.622Z,99449.97
2019-05-09T15:28:38.407Z,99452.59
2019-05-09T15:31:08.807Z,99456.22
2019-05-09T15:33:37.525Z,99449.49
2019-05-09T15:36:06.086Z,99454.49
2019-05-09T15:38:34.684Z,99445.57
2019-05-09T15:41:03.461Z,99443.64
2019-05-09T15:43:33.677Z,99451.92
2019-05-09T15:46:07.909Z,99454.27
2019-05-09T15:48:37.978Z,99449.27
2019-05-09T15:51:07.552Z,99450.67
2019-05-09T15:53:38.138Z,99445.77
2019-05-09T15:56:08.006Z,99452.91
2019-05-09T15:58:38.503Z,99446.90
2019-05-09T16:01:08.243Z,99448.00
2019-05-09T16:03:38.192Z,99445.17
2019-05-09T16:06:09.002Z,99443.02
2019-05-09T16:08:38.092Z,99442.16
2019-05-09T16:11:08.673Z,99444.92
2019-05-09T16:13:37.358Z,99446.59
2019-05-09T16:16:08.768Z,99444.72
2019-05-09T16:18:36.406Z,99444.45
2019-05-09T16:21:04.932Z,99443.83
2019-05-09T16:23:33.460Z,99440.55
2019-05-09T16:26:02.142Z,99445.17
2019-05-09T16:28:33.744Z,99439.64
2019-05-09T16:31:03.871Z,99444.67
2019-05-09T16:33:35.406Z,99444.63
2019-05-09T16:36:04.013Z,99450.23
2019-05-09T16:38:42.978Z,99450.28
2019-05-09T16:41:07.667Z,99451.06
2019-05-09T16:43:38.126Z,99458.53
2019-05-09T16:46:07.618Z,99453.70
2019-05-09T16:48:36.505Z,99448.12
2019-05-09T16:51:07.731Z,99451.25
2019-05-09T16:53:35.446Z,99452.78
2019-05-09T16:56:04.621Z,99445.80
2019-05-09T16:58:37.911Z,99444.63
2019-05-09T17:01:08.266Z,99455.36
2019-05-09T17:03:36.904Z,99454.33
2019-05-09T17:06:07.677Z,99452.78
2019-05-09T17:08:38.450Z,99457.70
2019-05-09T17:11:07.737Z,99454.41
2019-05-09T17:13:36.949Z,99452.69
2019-05-09T17:16:07.521Z,99451.97
2019-05-09T17:18:38.190Z,99457.16
2019-05-09T17:21:28.007Z,99459.98
2019-05-09T17:23:58.350Z,99459.05
2019-05-09T17:26:28.377Z,99466.53
2019-05-09T17:28:57.172Z,99465.74
2019-05-09T17:31:27.585Z,99462.02
2019-05-09T17:33:57.901Z,99465.14
2019-05-09T17:36:28.568Z,99470.73
2019-05-09T17:38:56.734Z,99473.52
2019-05-09T17:41:25.446Z,99479.88
2019-05-09T17:43:54.369Z,99479.80
2019-05-09T17:46:24.533Z,99482.91
2019-05-09T17:48:53.359Z,99490.52
2019-05-09T17:51:33.120Z,99483.53
2019-05-09T17:53:52.640Z,99489.66
2019-05-09T17:56:21.171Z,99490.89
2019-05-09T17:58:50.190Z,99488.61
2019-05-09T18:01:18.727Z,99485.11
2019-05-09T18:03:48.185Z,99487.78
2019-05-09T18:06:19.176Z,99490.69
2019-05-09T18:08:48.496Z,99494.59
2019-05-09T18:11:17.551Z,99490.58
2019-05-09T18:13:48.062Z,99484.91
2019-05-09T18:16:18.917Z,99490.17
2019-05-09T18:18:48.109Z,99490.92
2019-05-09T18:21:17.798Z,99499.39
2019-05-09T18:23:47.881Z,99492.86
2019-05-09T18:26:18.562Z,99493.68
2019-05-09T18:28:47.961Z,99493.33
2019-05-09T18:31:16.620Z,99502.39
2019-05-09T18:33:47.750Z,99500.88
2019-05-09T18:36:16.607Z,99502.66
2019-05-09T18:38:45.223Z,99506.22
2019-05-09T18:41:13.829Z,99505.50
2019-05-09T18:43:42.383Z,99511.80
2019-05-09T18:46:10.958Z,99508.84
2019-05-09T18:48:41.012Z,99506.45
2019-05-09T18:51:09.719Z,99509.91
2019-05-09T18:53:38.370Z,99515.59
2019-05-09T18:56:06.954Z,99516.42
2019-05-09T18:58:36.193Z,99517.03
2019-05-09T19:01:05.226Z,99515.24
2019-05-09T19:03:33.836Z,99515.24
2019-05-09T19:06:03.987Z,99520.83
2019-05-09T19:08:35.571Z,99520.48
2019-05-09T19:11:04.192Z,99525.58
2019-05-09T19:13:32.807Z,99524.97
2019-05-09T19:16:03.167Z,99526.06
2019-05-09T19:18:36.302Z,99528.55
2019-05-09T19:21:18.650Z,99531.16
2019-05-09T19:23:47.248Z,99531.61
2019-05-09T19:26:33.774Z,99532.21
2019-05-09T19:29:06.193Z,99533.16
2019-05-09T19:31:35.107Z,99539.18
2019-05-09T19:34:03.866Z,99540.40
2019-05-09T19:36:35.217Z,99537.64
2019-05-09T19:39:06.098Z,99540.27
2019-05-09T19:41:35.267Z,99536.69
2019-05-09T19:44:04.259Z,99552.16
2019-05-09T19:46:34.522Z,99546.80
2019-05-09T19:49:04.368Z,99548.47
2019-05-09T19:51:34.534Z,99553.48
2019-05-09T19:54:06.535Z,99551.58
2019-05-09T19:56:35.655Z,99561.05
2019-05-09T19:59:07.458Z,99560.05
2019-05-09T20:01:35.136Z,99559.47
2019-05-09T20:04:03.841Z,99558.89
2019-05-09T20:06:35.129Z,99563.92
2019-05-09T20:09:07.568Z,99563.08
2019-05-09T20:11:46.278Z,99563.64
2019-05-09T20:14:19.304Z,99565.71
2019-05-09T20:16:49.551Z,99563.54
2019-05-09T20:19:18.146Z,99565.41
2019-05-09T20:21:46.867Z,99562.95
2019-05-09T20:24:15.423Z,99563.31
2019-05-09T20:26:44.102Z,99569.58
2019-05-09T20:29:12.660Z,99563.14
2019-05-09T20:31:41.329Z,99571.05
2019-05-09T20:34:09.932Z,99573.52
2019-05-09T20:36:38.540Z,99571.41
2019-05-09T20:39:07.682Z,99574.73
2019-05-09T20:41:36.396Z,99582.77
2019-05-09T20:44:05.433Z,99583.02
2019-05-09T20:46:34.254Z,99584.67
2019-05-09T20:49:02.983Z,99588.59
2019-05-09T20:51:31.793Z,99591.63
2019-05-09T20:54:03.389Z,99593.01
2019-05-09T20:56:32.511Z,99596.44
2019-05-09T20:59:01.348Z,99597.41
2019-05-09T21:01:30.359Z,99594.95
2019-05-09T21:04:00.724Z,99601.51
2019-05-09T21:06:29.586Z,99597.21
2019-05-09T21:08:58.369Z,99598.66
2019-05-09T21:11:27.517Z,99601.52
2019-05-09T21:13:56.331Z,99612.89
2019-05-09T21:16:25.148Z,99620.94
2019-05-09T21:18:54.268Z,99623.64
2019-05-09T21:21:23.083Z,99622.15
2019-05-09T21:23:51.898Z,99625.63
2019-05-09T21:26:20.713Z,99620.95
2019-05-09T21:28:49.529Z,99621.16
2019-05-09T21:31:18.245Z,99622.11
2019-05-09T21:33:47.072Z,99620.13
2019-05-09T21:36:15.663Z,99610.45
2019-05-09T21:38:44.374Z,99618.51
2019-05-09T21:41:12.992Z,99612.59
2019-05-09T21:43:41.611Z,99620.37
2019-05-09T21:46:10.218Z,99624.31
2019-05-09T21:48:38.854Z,99620.95
2019-05-09T21:51:07.539Z,99617.62
2019-05-09T21:53:40.853Z,99616.34
2019-05-09T21:56:06.507Z,99612.30
2019-05-09T21:58:35.127Z,99621.34
2019-05-09T22:01:05.463Z,99619.32
2019-05-09T22:03:33.992Z,99621.69
2019-05-09T22:06:05.339Z,99621.44
2019-05-09T22:08:33.983Z,99617.94
2019-05-09T22:11:05.966Z,99620.75
2019-05-09T22:13:34.578Z,99615.91
2019-05-09T22:16:06.167Z,99617.52
2019-05-09T22:18:34.901Z,99616.42
2019-05-09T22:21:03.620Z,99621.91
2019-05-09T22:23:34.393Z,99619.31
2019-05-09T22:26:04.985Z,99616.98
2019-05-09T22:28:33.868Z,99619.58
2019-05-09T22:31:02.968Z,99616.12
2019-05-09T22:33:31.496Z,99617.70
2019-05-09T22:36:02.075Z,99618.17
2019-05-09T22:38:30.297Z,99620.60
2019-05-09T22:40:58.905Z,99619.77
2019-05-09T22:43:27.437Z,99612.36
2019-05-09T22:45:55.969Z,99620.61
2019-05-09T22:48:24.529Z,99622.27
2019-05-09T22:50:53.140Z,99622.81
2019-05-09T22:53:21.688Z,99620.41
2019-05-09T22:55:50.205Z,99620.20
2019-05-09T22:58:18.889Z,99618.57
2019-05-09T23:00:47.515Z,99619.01
2019-05-09T23:03:16.146Z,99619.77
2019-05-09T23:05:44.853Z,99626.44
2019-05-09T23:08:13.464Z,99624.83
2019-05-09T23:10:42.109Z,99618.23
2019-05-09T23:13:10.828Z,99616.83
2019-05-09T23:15:39.373Z,99619.55
2019-05-09T23:18:08.009Z,99619.30
2019-05-09T23:20:40.734Z,99619.20
2019-05-09T23:23:23.391Z,99618.94
2019-05-09T23:25:52.035Z,99621.05
2019-05-09T23:28:20.964Z,99622.45
2019-05-09T23:30:51.219Z,99619.58
2019-05-09T23:33:20.413Z,99626.94
2019-05-09T23:35:48.968Z,99633.52
2019-05-09T23:38:18.294Z,99635.76
2019-05-09T23:40:46.920Z,99625.08
2019-05-09T23:43:15.534Z,99634.38
2019-05-09T23:45:44.058Z,99642.27
2019-05-09T23:48:12.952Z,99644.30
2019-05-09T23:50:41.567Z,99636.77
2019-05-09T23:53:10.393Z,99640.11
2019-05-09T23:55:57.217Z,99642.54
2019-05-09T23:58:43.549Z,99640.03
